Time;durP1;ratioP1;P1;durP2;ratioP2;P2;SDS_P1;SDS_P2;PMS_P1;PMS_P2;Temp;Humidity;BMP_temperature;BMP_pressure;BME280_temperature;BME280_humidity;BME280_pressure;Samples;Min_cycle;Max_cycle;Signal;HPM_P1;HPM_P2
2021/05/07 00:00:28;;;;;;;13.07;11.73;;;6.20;99.90;;;;;;5089664;28;20230;-47
2021/05/07 00:02:54;;;;;;;13.97;12.67;;;6.10;99.90;;;;;;5100357;28;20219;-41
2021/05/07 00:05:20;;;;;;;13.07;11.77;;;6.20;99.90;;;;;;5106255;28;20184;-43
2021/05/07 00:07:45;;;;;;;12.70;11.60;;;6.40;99.90;;;;;;5106837;28;20248;-45
2021/05/07 00:10:14;;;;;;;12.80;11.60;;;6.20;99.90;;;;;;5105020;28;20740;-43
2021/05/07 00:12:44;;;;;;;12.63;11.30;;;6.30;99.90;;;;;;5082581;28;20222;-43
2021/05/07 00:15:10;;;;;;;14.20;12.47;;;6.20;99.90;;;;;;5084936;28;20783;-45
2021/05/07 00:17:36;;;;;;;13.20;11.90;;;6.20;99.90;;;;;;5086553;28;20462;-47
2021/05/07 00:20:04;;;;;;;13.00;11.70;;;6.40;99.90;;;;;;5084413;28;20414;-45
2021/05/07 00:22:29;;;;;;;14.90;13.40;;;6.30;99.90;;;;;;5086470;28;20180;-45
2021/05/07 00:24:55;;;;;;;13.80;12.17;;;6.10;99.90;;;;;;5086241;28;20426;-45
2021/05/07 00:27:21;;;;;;;12.90;11.40;;;6.30;99.90;;;;;;5082808;28;20193;-44
2021/05/07 00:29:47;;;;;;;14.33;11.67;;;6.30;99.90;;;;;;5082030;28;20407;-48
2021/05/07 00:32:13;;;;;;;12.07;10.83;;;6.30;99.90;;;;;;5092642;28;20194;-46
2021/05/07 00:34:39;;;;;;;12.27;10.83;;;6.20;99.90;;;;;;5107034;28;20339;-43
2021/05/07 00:37:05;;;;;;;13.23;11.87;;;6.20;99.90;;;;;;5093496;28;20726;-42
2021/05/07 00:39:30;;;;;;;12.33;11.10;;;6.30;99.90;;;;;;5104779;28;20191;-44
2021/05/07 00:42:03;;;;;;;12.07;10.20;;;6.00;99.90;;;;;;5106332;28;20191;-45
2021/05/07 00:44:33;;;;;;;11.20;10.10;;;6.10;99.90;;;;;;5075370;28;20245;-47
2021/05/07 00:47:04;;;;;;;12.53;11.23;;;6.20;99.90;;;;;;5086011;28;20438;-45
2021/05/07 00:49:34;;;;;;;12.57;11.27;;;6.20;99.90;;;;;;5085747;28;20476;-44
2021/05/07 00:52:02;;;;;;;12.80;11.53;;;5.90;99.90;;;;;;5086016;28;20752;-42
2021/05/07 00:54:29;;;;;;;11.40;10.27;;;6.10;99.90;;;;;;5086041;28;20987;-44
2021/05/07 00:56:56;;;;;;;12.43;11.13;;;5.90;99.90;;;;;;5088031;28;20509;-45
2021/05/07 00:59:21;;;;;;;11.87;10.57;;;6.10;99.90;;;;;;5082041;28;20770;-44
2021/05/07 01:01:49;;;;;;;14.70;11.27;;;6.10;99.90;;;;;;5094886;28;20926;-42
2021/05/07 01:04:15;;;;;;;11.57;10.40;;;6.20;99.90;;;;;;5090113;28;20414;-45
2021/05/07 01:06:42;;;;;;;11.70;10.50;;;6.10;99.90;;;;;;5090094;28;20425;-45
2021/05/07 01:09:07;;;;;;;12.43;10.50;;;6.20;99.90;;;;;;5089190;28;20450;-47
2021/05/07 01:11:33;;;;;;;12.33;10.67;;;6.20;99.90;;;;;;5090028;28;20949;-42
2021/05/07 01:13:59;;;;;;;12.53;10.87;;;6.30;99.90;;;;;;5079492;28;20237;-43
2021/05/07 01:16:25;;;;;;;13.77;10.87;;;6.30;99.90;;;;;;5093871;28;20215;-44
2021/05/07 01:18:50;;;;;;;11.77;10.00;;;6.20;99.90;;;;;;5099275;28;20202;-46
2021/05/07 01:21:16;;;;;;;13.43;11.70;;;6.20;99.90;;;;;;5109535;28;20179;-42
2021/05/07 01:23:43;;;;;;;15.93;11.90;;;6.20;99.90;;;;;;5109741;28;20214;-47
2021/05/07 01:26:08;;;;;;;13.80;11.30;;;6.40;99.90;;;;;;5110141;28;20200;-44
2021/05/07 01:28:35;;;;;;;12.97;10.87;;;6.40;99.90;;;;;;5085993;28;20435;-43
2021/05/07 01:31:00;;;;;;;15.67;12.53;;;6.30;99.90;;;;;;5090213;28;20250;-44
2021/05/07 01:33:26;;;;;;;14.60;12.23;;;6.30;99.90;;;;;;5087972;28;20410;-42
2021/05/07 01:35:53;;;;;;;13.97;11.77;;;6.20;99.90;;;;;;5089302;28;20218;-43
2021/05/07 01:38:19;;;;;;;15.50;12.83;;;6.50;99.90;;;;;;5089128;28;20458;-42
2021/05/07 01:40:47;;;;;;;15.17;12.73;;;6.40;99.90;;;;;;5088504;28;20422;-43
2021/05/07 01:43:14;;;;;;;15.60;13.40;;;6.50;99.90;;;;;;5080993;28;20597;-43
2021/05/07 01:45:42;;;;;;;15.87;13.53;;;6.50;99.90;;;;;;5087608;28;20418;-44
2021/05/07 01:48:08;;;;;;;16.20;13.03;;;6.50;99.90;;;;;;5100925;28;20781;-42
2021/05/07 01:50:36;;;;;;;18.00;13.97;;;6.50;99.90;;;;;;5108579;28;20433;-44
2021/05/07 01:53:02;;;;;;;15.83;13.33;;;6.30;99.90;;;;;;5103070;28;20214;-45
2021/05/07 01:55:31;;;;;;;18.07;13.73;;;6.50;99.90;;;;;;5109198;28;20425;-45
2021/05/07 01:57:58;;;;;;;18.13;14.23;;;6.60;99.90;;;;;;5102642;28;20427;-47
2021/05/07 02:00:28;;;;;;;18.43;15.20;;;6.50;99.90;;;;;;5080302;28;20434;-43
2021/05/07 02:02:57;;;;;;;18.67;15.47;;;6.50;99.90;;;;;;5092355;28;20418;-44
2021/05/07 02:05:26;;;;;;;18.17;14.27;;;6.50;99.90;;;;;;5108279;28;20425;-44
2021/05/07 02:07:52;;;;;;;20.67;14.77;;;6.20;99.90;;;;;;5106177;28;20441;-42
2021/05/07 02:10:21;;;;;;;17.13;14.00;;;6.40;99.90;;;;;;5108846;28;20428;-45
2021/05/07 02:12:46;;;;;;;20.43;16.20;;;6.10;99.90;;;;;;5106512;27;20199;-44
2021/05/07 02:15:15;;;;;;;19.50;15.60;;;6.20;99.90;;;;;;5083451;28;20801;-43
2021/05/07 02:17:41;;;;;;;18.10;14.83;;;6.30;99.90;;;;;;5088127;28;20461;-47
2021/05/07 02:20:08;;;;;;;19.73;16.70;;;6.20;99.90;;;;;;5087855;28;20737;-44
2021/05/07 02:22:34;;;;;;;17.97;13.80;;;6.40;99.90;;;;;;5088419;28;20739;-43
2021/05/07 02:25:00;;;;;;;18.80;15.50;;;6.10;99.90;;;;;;5075145;28;20510;-46
2021/05/07 02:27:25;;;;;;;20.00;15.23;;;6.30;99.90;;;;;;5088247;28;20193;-42
2021/05/07 02:29:51;;;;;;;21.03;16.83;;;6.30;99.90;;;;;;5083501;28;20437;-44
2021/05/07 02:32:17;;;;;;;19.67;15.83;;;6.30;99.90;;;;;;5087985;28;20195;-45
2021/05/07 02:34:42;;;;;;;21.60;17.10;;;6.20;99.90;;;;;;5088259;28;20295;-48
2021/05/07 02:37:09;;;;;;;20.00;16.53;;;6.20;99.90;;;;;;5087977;28;20239;-47
2021/05/07 02:39:35;;;;;;;17.67;14.83;;;6.20;99.90;;;;;;5087725;28;20215;-43
2021/05/07 02:42:00;;;;;;;20.20;15.63;;;6.20;99.90;;;;;;5087990;28;20457;-45
2021/05/07 02:44:26;;;;;;;24.70;18.90;;;6.00;99.90;;;;;;5078217;28;20642;-43
2021/05/07 02:46:52;;;;;;;20.73;16.00;;;6.20;99.90;;;;;;5089141;28;20334;-45
2021/05/07 02:49:18;;;;;;;19.87;16.03;;;5.90;99.90;;;;;;5095787;28;20203;-43
2021/05/07 02:51:44;;;;;;;22.07;17.07;;;6.10;99.90;;;;;;5106407;28;20841;-42
2021/05/07 02:54:10;;;;;;;22.37;16.87;;;6.50;99.90;;;;;;5108293;28;20283;-44
2021/05/07 02:56:35;;;;;;;20.67;16.83;;;6.10;99.90;;;;;;5108281;28;20211;-43
2021/05/07 02:59:01;;;;;;;22.17;16.90;;;6.30;99.90;;;;;;5089925;28;20193;-42
2021/05/07 03:01:27;;;;;;;19.23;16.53;;;6.20;99.90;;;;;;5084869;28;20619;-45
2021/05/07 03:03:52;;;;;;;19.10;14.90;;;6.20;99.90;;;;;;5087744;28;20537;-45
2021/05/07 03:06:18;;;;;;;17.80;15.07;;;6.20;99.90;;;;;;5087863;28;20196;-43
2021/05/07 03:08:44;;;;;;;21.27;16.47;;;6.20;99.90;;;;;;5087257;28;20215;-43
2021/05/07 03:11:10;;;;;;;21.03;16.30;;;6.10;99.90;;;;;;5087467;28;20176;-43
2021/05/07 03:13:35;;;;;;;21.03;17.07;;;6.20;99.90;;;;;;5084777;28;20208;-43
2021/05/07 03:16:01;;;;;;;23.33;17.13;;;6.30;99.90;;;;;;5081470;28;20969;-44
2021/05/07 03:18:27;;;;;;;20.77;16.83;;;6.00;99.90;;;;;;5087149;28;20193;-42
2021/05/07 03:20:54;;;;;;;23.03;17.77;;;6.20;99.90;;;;;;5086541;28;20442;-42
2021/05/07 03:23:19;;;;;;;21.83;16.70;;;6.20;99.90;;;;;;5087364;28;20410;-44
2021/05/07 03:25:45;;;;;;;21.20;16.67;;;6.20;99.90;;;;;;5087002;28;20476;-41
2021/05/07 03:28:12;;;;;;;21.97;17.53;;;5.80;99.90;;;;;;5087453;28;20778;-47
2021/05/07 03:30:39;;;;;;;20.57;16.57;;;6.00;99.90;;;;;;5083605;28;20438;-42
2021/05/07 03:33:05;;;;;;;23.33;17.43;;;6.20;99.90;;;;;;5087008;28;20434;-44
2021/05/07 03:35:32;;;;;;;22.27;17.70;;;6.10;99.90;;;;;;5087087;28;20422;-43
2021/05/07 03:37:59;;;;;;;23.77;16.87;;;6.00;99.90;;;;;;5087547;28;20794;-46
2021/05/07 03:40:25;;;;;;;22.80;17.33;;;6.00;99.90;;;;;;5084838;28;20414;-42
2021/05/07 03:42:51;;;;;;;22.50;17.90;;;5.80;99.90;;;;;;5086569;28;20422;-44
2021/05/07 03:45:17;;;;;;;23.20;18.10;;;6.00;99.90;;;;;;5072556;28;20459;-45
2021/05/07 03:47:43;;;;;;;23.23;17.83;;;5.70;99.90;;;;;;5085397;28;20184;-42
2021/05/07 03:50:11;;;;;;;23.27;18.00;;;6.20;99.90;;;;;;5086326;28;20871;-47
2021/05/07 03:52:37;;;;;;;21.40;16.87;;;5.90;99.90;;;;;;5086882;28;20548;-45
2021/05/07 03:55:05;;;;;;;22.63;17.90;;;5.80;99.90;;;;;;5086771;28;20438;-45
2021/05/07 03:57:31;;;;;;;23.87;18.17;;;5.80;99.90;;;;;;5086768;28;20515;-47
2021/05/07 03:59:57;;;;;;;23.00;18.43;;;5.80;99.90;;;;;;5076404;28;20413;-44
2021/05/07 04:02:23;;;;;;;27.00;19.70;;;5.80;99.90;;;;;;5086378;28;20427;-45
2021/05/07 04:04:50;;;;;;;26.23;18.00;;;5.80;99.90;;;;;;5102224;28;20211;-42
2021/05/07 04:07:16;;;;;;;23.70;17.83;;;5.60;99.90;;;;;;5104658;28;20426;-48
2021/05/07 04:09:51;;;;;;;22.53;17.13;;;5.60;99.90;;;;;;5082978;28;20994;-45
2021/05/07 04:13:29;;;;;;;24.73;19.50;;;5.50;99.90;;;;;;5106836;28;20933;-44
2021/05/07 04:15:07;;;;;;;28.67;21.10;;;5.70;99.90;;;;;;5083703;28;20811;-45
2021/05/07 04:17:32;;;;;;;27.17;18.70;;;5.40;99.90;;;;;;5084438;28;20454;-48
2021/05/07 04:19:58;;;;;;;27.80;20.63;;;5.40;99.90;;;;;;5094201;28;20901;-47
2021/05/07 04:22:23;;;;;;;25.80;19.53;;;5.50;99.90;;;;;;5104604;28;20211;-43
2021/05/07 04:24:49;;;;;;;27.33;19.77;;;5.80;99.90;;;;;;5104793;28;20244;-42
2021/05/07 04:27:15;;;;;;;28.70;20.20;;;5.70;99.90;;;;;;5107085;28;20203;-44
2021/05/07 04:29:41;;;;;;;32.57;22.57;;;5.60;99.90;;;;;;5079907;28;20185;-47
2021/05/07 04:32:07;;;;;;;26.43;19.47;;;5.80;99.90;;;;;;5080868;28;20250;-43
2021/05/07 04:34:32;;;;;;;28.80;21.63;;;5.70;99.90;;;;;;5086244;28;20930;-45
2021/05/07 04:36:58;;;;;;;30.90;21.37;;;5.50;99.90;;;;;;5086345;28;20211;-42
2021/05/07 04:39:24;;;;;;;27.83;20.60;;;5.50;99.90;;;;;;5085436;28;20184;-42
2021/05/07 04:41:50;;;;;;;33.17;22.50;;;5.60;99.90;;;;;;5085339;28;20610;-42
2021/05/07 04:44:15;;;;;;;32.70;22.03;;;6.00;99.90;;;;;;5080364;28;20196;-43
2021/05/07 04:46:41;;;;;;;31.80;21.60;;;5.70;99.90;;;;;;5079866;28;20265;-44
2021/05/07 04:49:07;;;;;;;31.17;21.87;;;5.70;99.90;;;;;;5079717;28;20313;-48
2021/05/07 04:51:33;;;;;;;35.57;24.37;;;5.80;99.90;;;;;;5088821;28;20196;-45
2021/05/07 04:53:59;;;;;;;30.70;22.13;;;5.80;99.90;;;;;;5095546;28;20215;-42
2021/05/07 04:56:25;;;;;;;31.03;22.23;;;5.80;99.90;;;;;;5084556;28;20219;-43
2021/05/07 04:58:52;;;;;;;35.23;23.53;;;5.80;99.90;;;;;;5094008;28;20531;-44
2021/05/07 05:01:17;;;;;;;29.70;21.73;;;5.80;99.90;;;;;;5086280;28;20433;-42
2021/05/07 05:03:43;;;;;;;29.10;21.90;;;5.70;99.90;;;;;;5093870;28;20429;-45
2021/05/07 05:06:09;;;;;;;28.83;21.07;;;6.00;99.90;;;;;;5089307;28;20246;-42
2021/05/07 05:08:34;;;;;;;27.50;21.37;;;6.00;99.90;;;;;;5095061;28;20215;-45
2021/05/07 05:11:00;;;;;;;29.73;22.00;;;5.80;99.90;;;;;;5093186;28;20207;-42
2021/05/07 05:13:26;;;;;;;27.87;21.37;;;5.90;99.90;;;;;;5086727;28;20188;-42
2021/05/07 05:15:53;;;;;;;28.07;21.00;;;5.80;99.90;;;;;;5087203;28;20699;-43
2021/05/07 05:18:32;;;;;;;29.20;20.97;;;5.90;99.90;;;;;;5086661;28;20756;-43
2021/05/07 05:21:03;;;;;;;31.47;21.80;;;6.20;99.90;;;;;;5099543;28;20423;-43
2021/05/07 05:23:29;;;;;;;27.63;20.90;;;6.10;99.90;;;;;;5100031;28;20455;-42
2021/05/07 05:25:56;;;;;;;29.00;21.63;;;6.20;99.90;;;;;;5101039;28;20448;-43
2021/05/07 05:28:22;;;;;;;32.30;21.20;;;6.00;99.90;;;;;;5096943;28;20579;-45
2021/05/07 05:30:49;;;;;;;29.07;20.70;;;6.00;99.90;;;;;;5086232;28;20569;-46
2021/05/07 05:33:14;;;;;;;29.03;21.20;;;6.10;99.90;;;;;;5088744;28;20425;-42
2021/05/07 05:35:40;;;;;;;29.80;20.97;;;6.10;99.90;;;;;;5098925;28;20436;-43
2021/05/07 05:38:06;;;;;;;25.20;19.87;;;6.20;99.90;;;;;;5085665;28;20188;-43
2021/05/07 05:40:32;;;;;;;25.57;20.07;;;6.30;99.90;;;;;;5085529;28;20859;-45
2021/05/07 05:42:58;;;;;;;27.83;20.20;;;6.30;99.90;;;;;;5086728;28;20483;-43
2021/05/07 05:45:25;;;;;;;26.40;19.83;;;6.20;99.90;;;;;;5088562;28;20188;-42
2021/05/07 05:48:22;;;;;;;25.53;19.67;;;6.20;99.90;;;;;;5089153;28;20451;-42
2021/05/07 05:50:50;;;;;;;23.73;18.43;;;5.90;99.90;;;;;;5085642;28;20437;-44
2021/05/07 05:53:16;;;;;;;28.87;18.73;;;6.10;99.90;;;;;;5108204;28;20409;-44
2021/05/07 05:55:42;;;;;;;22.47;18.40;;;6.30;99.90;;;;;;5109068;28;20830;-42
2021/05/07 05:58:09;;;;;;;24.47;19.37;;;6.60;99.90;;;;;;5109445;28;20432;-42
2021/05/07 06:00:35;;;;;;;25.70;18.80;;;6.60;99.90;;;;;;5088908;28;20430;-43
2021/05/07 06:03:01;;;;;;;24.60;19.60;;;6.60;99.90;;;;;;5090857;28;20450;-44
2021/05/07 06:05:27;;;;;;;24.47;18.60;;;6.60;99.90;;;;;;5094198;28;21139;-42
2021/05/07 06:07:52;;;;;;;25.17;19.20;;;6.60;99.90;;;;;;5088868;28;20253;-46
2021/05/07 06:10:19;;;;;;;24.93;18.60;;;6.70;99.90;;;;;;5087836;28;20184;-43
2021/05/07 06:12:46;;;;;;;22.60;18.13;;;6.60;99.90;;;;;;5088917;28;20623;-44
2021/05/07 06:15:13;;;;;;;23.00;18.30;;;6.80;99.90;;;;;;5084042;28;20436;-46
2021/05/07 06:17:39;;;;;;;22.97;18.80;;;6.70;99.90;;;;;;5096780;28;20458;-47
2021/05/07 06:20:07;;;;;;;22.33;18.00;;;6.70;99.90;;;;;;5088887;28;20442;-44
2021/05/07 06:22:34;;;;;;;24.83;19.03;;;6.70;99.90;;;;;;5088802;28;20407;-44
2021/05/07 06:25:00;;;;;;;22.23;17.53;;;6.90;99.90;;;;;;5088491;28;20418;-44
2021/05/07 06:27:26;;;;;;;21.53;18.10;;;6.80;99.90;;;;;;5087839;28;20888;-44
2021/05/07 06:29:52;;;;;;;22.83;18.50;;;6.70;99.90;;;;;;5089613;28;20442;-43
2021/05/07 06:32:18;;;;;;;25.40;19.17;;;6.80;99.90;;;;;;5087286;28;20533;-43
2021/05/07 06:34:44;;;;;;;24.80;17.97;;;6.80;99.90;;;;;;5087868;28;20703;-43
2021/05/07 06:37:10;;;;;;;24.30;18.23;;;6.90;99.90;;;;;;5090339;28;20465;-43
2021/05/07 06:39:36;;;;;;;21.53;15.83;;;6.60;99.90;;;;;;5096423;28;20183;-48
2021/05/07 06:42:02;;;;;;;19.57;15.90;;;6.80;99.90;;;;;;5099021;28;20480;-44
2021/05/07 06:44:28;;;;;;;16.30;12.90;;;6.80;99.90;;;;;;5108205;28;20421;-47
2021/05/07 06:46:54;;;;;;;16.63;12.10;;;6.80;99.90;;;;;;5080784;28;20430;-43
2021/05/07 06:49:21;;;;;;;18.83;12.70;;;6.80;99.90;;;;;;5087315;28;20441;-44
2021/05/07 06:51:48;;;;;;;13.63;10.13;;;6.80;99.90;;;;;;5089799;28;20449;-45
2021/05/07 06:54:13;;;;;;;8.53;7.27;;;6.90;99.90;;;;;;5102764;28;20419;-42
2021/05/07 06:56:40;;;;;;;8.03;6.70;;;6.60;99.90;;;;;;5103960;28;20468;-46
2021/05/07 06:59:08;;;;;;;7.53;6.47;;;6.60;99.90;;;;;;5107357;28;20808;-47
2021/05/07 07:01:35;;;;;;;7.20;5.80;;;6.50;99.90;;;;;;5087153;28;20763;-44
2021/05/07 07:04:01;;;;;;;6.73;5.60;;;6.50;99.90;;;;;;5087402;28;20423;-46
2021/05/07 07:06:28;;;;;;;6.30;5.60;;;6.20;99.90;;;;;;5087534;28;20449;-47
2021/05/07 07:08:53;;;;;;;6.80;5.13;;;6.10;99.90;;;;;;5086823;28;20504;-43
2021/05/07 07:11:19;;;;;;;5.57;4.90;;;6.20;99.90;;;;;;5087418;28;20430;-43
2021/05/07 07:13:45;;;;;;;5.83;5.27;;;6.40;99.90;;;;;;5087103;28;20193;-44
2021/05/07 07:16:11;;;;;;;5.40;4.57;;;6.00;99.90;;;;;;5080768;28;20581;-44
2021/05/07 07:18:37;;;;;;;6.33;5.13;;;6.00;99.90;;;;;;5086895;28;20572;-45
2021/05/07 07:21:03;;;;;;;6.30;5.70;;;6.20;99.90;;;;;;5090551;28;20406;-46
2021/05/07 07:23:30;;;;;;;6.13;5.30;;;6.10;99.90;;;;;;5097237;28;21035;-44
2021/05/07 07:25:55;;;;;;;7.67;5.90;;;6.00;99.90;;;;;;5102410;28;20537;-45
2021/05/07 07:28:21;;;;;;;8.47;5.40;;;6.10;99.90;;;;;;5097250;28;20429;-43
2021/05/07 07:30:47;;;;;;;7.63;5.37;;;6.30;99.90;;;;;;5094370;28;20655;-43
2021/05/07 07:33:13;;;;;;;6.13;5.53;;;6.10;99.90;;;;;;5081649;28;20737;-42
2021/05/07 07:35:39;;;;;;;6.40;5.60;;;6.20;99.90;;;;;;5085032;28;20454;-42
2021/05/07 07:38:05;;;;;;;7.90;5.73;;;6.40;99.90;;;;;;5086426;28;20527;-42
2021/05/07 07:40:31;;;;;;;7.33;5.20;;;6.30;99.90;;;;;;5084523;28;20419;-46
2021/05/07 07:42:57;;;;;;;6.20;5.60;;;6.00;99.90;;;;;;5085445;28;20729;-44
2021/05/07 07:45:22;;;;;;;6.80;5.37;;;6.30;99.90;;;;;;5086978;28;20423;-45
2021/05/07 07:47:48;;;;;;;5.73;5.13;;;6.40;99.90;;;;;;5077972;28;20699;-47
2021/05/07 07:50:14;;;;;;;9.57;5.27;;;6.10;99.90;;;;;;5084559;28;20449;-47
2021/05/07 07:52:40;;;;;;;6.80;5.70;;;6.20;99.90;;;;;;5085599;28;20276;-49
2021/05/07 07:55:07;;;;;;;5.00;4.00;;;6.10;99.90;;;;;;5086865;28;20518;-45
2021/05/07 07:57:32;;;;;;;4.43;3.67;;;6.00;99.90;;;;;;5086267;28;20242;-47
2021/05/07 07:59:58;;;;;;;3.73;3.43;;;6.20;99.90;;;;;;5086244;28;20954;-45
2021/05/07 08:02:28;;;;;;;3.97;3.63;;;6.20;99.90;;;;;;5072218;28;20193;-42
2021/05/07 08:04:54;;;;;;;4.53;4.13;;;6.00;99.90;;;;;;5089735;28;20909;-44
2021/05/07 08:07:20;;;;;;;6.20;4.40;;;6.00;99.90;;;;;;5084725;28;20510;-46
2021/05/07 08:09:45;;;;;;;4.63;3.80;;;5.90;99.90;;;;;;5085945;28;20203;-43
2021/05/07 08:12:12;;;;;;;4.13;3.73;;;6.00;99.90;;;;;;5086475;28;20973;-44
2021/05/07 08:14:38;;;;;;;4.40;4.00;;;5.90;99.90;;;;;;5086548;28;20918;-43
2021/05/07 08:17:04;;;;;;;4.40;3.53;;;6.00;99.90;;;;;;5079738;28;20474;-42
2021/05/07 08:19:30;;;;;;;4.33;3.93;;;5.80;99.90;;;;;;5083078;28;20425;-43
2021/05/07 08:21:56;;;;;;;4.40;3.90;;;5.90;99.90;;;;;;5086721;28;20222;-47
2021/05/07 08:24:22;;;;;;;4.13;3.83;;;5.90;99.90;;;;;;5086192;28;20190;-47
2021/05/07 08:26:48;;;;;;;4.83;4.37;;;6.10;99.90;;;;;;5086506;28;20475;-45
2021/05/07 08:29:14;;;;;;;6.13;4.50;;;5.90;99.90;;;;;;5085703;28;20430;-48
2021/05/07 08:31:40;;;;;;;6.27;4.10;;;6.30;99.90;;;;;;5082135;28;20180;-47
2021/05/07 08:34:05;;;;;;;4.17;3.80;;;6.30;99.90;;;;;;5081842;28;20243;-45
2021/05/07 08:36:31;;;;;;;4.03;3.73;;;6.50;99.90;;;;;;5086171;28;20291;-43
2021/05/07 08:38:57;;;;;;;4.13;3.80;;;6.50;99.90;;;;;;5085379;28;20237;-45
2021/05/07 08:41:23;;;;;;;4.90;4.00;;;6.80;99.90;;;;;;5085940;28;20200;-42
2021/05/07 08:43:52;;;;;;;6.40;4.93;;;6.70;99.90;;;;;;5085278;28;20279;-43
2021/05/07 08:46:18;;;;;;;4.10;3.73;;;6.90;99.90;;;;;;5083977;28;20505;-44
2021/05/07 08:48:45;;;;;;;5.47;3.73;;;7.00;99.90;;;;;;5078788;28;20426;-47
2021/05/07 08:51:11;;;;;;;4.70;3.53;;;7.20;99.90;;;;;;5089050;28;21043;-43
2021/05/07 08:53:38;;;;;;;3.63;3.33;;;7.50;99.90;;;;;;5103189;28;20501;-42
2021/05/07 08:56:05;;;;;;;4.93;4.43;;;7.50;99.90;;;;;;5104302;28;20518;-44
2021/05/07 08:58:31;;;;;;;5.73;4.33;;;7.60;99.90;;;;;;5106314;28;20646;-44
2021/05/07 09:00:57;;;;;;;6.07;5.17;;;7.50;99.90;;;;;;5105687;28;20478;-44
2021/05/07 09:03:24;;;;;;;6.13;5.30;;;7.60;99.90;;;;;;5074506;28;20492;-46
2021/05/07 09:05:50;;;;;;;4.93;3.97;;;8.00;99.90;;;;;;5085828;28;20676;-48
2021/05/07 09:08:16;;;;;;;5.00;4.07;;;7.90;99.90;;;;;;5085630;28;20861;-44
2021/05/07 09:10:46;;;;;;;4.60;3.50;;;8.00;99.90;;;;;;5085311;28;20430;-44
2021/05/07 09:13:14;;;;;;;3.60;3.30;;;8.30;99.90;;;;;;5086282;28;20214;-43
2021/05/07 09:15:41;;;;;;;3.87;3.27;;;7.90;99.90;;;;;;5086120;28;20422;-45
2021/05/07 09:18:07;;;;;;;4.00;3.60;;;8.20;99.90;;;;;;5079242;28;20430;-46
2021/05/07 09:20:40;;;;;;;4.60;4.20;;;8.20;99.90;;;;;;5089040;28;20446;-43
2021/05/07 09:23:11;;;;;;;5.50;4.17;;;8.40;99.90;;;;;;5109024;28;20426;-46
2021/05/07 09:25:41;;;;;;;7.43;4.60;;;8.60;99.90;;;;;;5105160;28;20426;-44
2021/05/07 09:28:12;;;;;;;7.80;4.67;;;8.70;99.90;;;;;;5102762;28;20415;-44
2021/05/07 09:30:39;;;;;;;5.27;4.63;;;8.50;99.90;;;;;;5103814;28;20917;-44
2021/05/07 09:33:10;;;;;;;5.07;4.57;;;8.80;99.90;;;;;;5092105;28;21097;-47
2021/05/07 09:35:37;;;;;;;5.27;4.77;;;8.90;99.90;;;;;;5087563;28;20949;-43
2021/05/07 09:38:12;;;;;;;4.80;4.27;;;9.10;99.90;;;;;;5089393;28;20798;-43
2021/05/07 09:40:40;;;;;;;5.87;5.33;;;9.20;99.90;;;;;;5089010;28;20494;-45
2021/05/07 09:43:17;;;;;;;5.40;5.00;;;9.30;99.90;;;;;;5088353;28;20430;-45
2021/05/07 09:45:46;;;;;;;6.40;5.80;;;9.40;99.90;;;;;;5089215;28;20483;-47
2021/05/07 09:48:22;;;;;;;6.93;6.27;;;9.30;99.90;;;;;;5078856;28;20443;-44
2021/05/07 09:50:49;;;;;;;7.50;5.70;;;9.30;99.90;;;;;;5084945;28;20410;-46
2021/05/07 09:53:20;;;;;;;6.23;5.70;;;9.30;99.90;;;;;;5089219;28;20419;-42
2021/05/07 09:55:49;;;;;;;6.00;5.40;;;9.20;99.90;;;;;;5087791;28;20950;-44
2021/05/07 09:58:15;;;;;;;5.83;5.43;;;9.20;99.90;;;;;;5087370;28;20859;-46
2021/05/07 10:00:41;;;;;;;6.40;5.90;;;9.30;99.90;;;;;;5088537;28;20781;-44
2021/05/07 10:03:07;;;;;;;5.43;5.03;;;9.50;99.90;;;;;;5068353;28;20434;-43
2021/05/07 10:05:34;;;;;;;5.53;4.97;;;9.80;99.90;;;;;;5088698;28;20960;-45
2021/05/07 10:08:00;;;;;;;3.70;3.40;;;10.00;99.90;;;;;;5088803;28;20753;-43
2021/05/07 10:10:38;;;;;;;4.93;3.63;;;10.10;99.90;;;;;;5088303;28;20965;-44
2021/05/07 10:13:07;;;;;;;3.70;3.40;;;10.10;99.90;;;;;;5088942;28;20517;-45
2021/05/07 10:15:36;;;;;;;5.20;3.60;;;10.10;99.90;;;;;;5088705;28;20966;-45
2021/05/07 10:18:05;;;;;;;7.40;4.63;;;10.00;99.90;;;;;;5080901;28;20431;-49
2021/05/07 10:20:35;;;;;;;7.23;3.90;;;10.10;99.90;;;;;;5085569;28;20406;-48
2021/05/07 10:23:15;;;;;;;3.57;3.27;;;10.00;99.90;;;;;;5097926;28;20406;-49
2021/05/07 10:25:51;;;;;;;4.20;3.50;;;10.00;99.90;;;;;;5108499;28;20432;-44
2021/05/07 10:28:17;;;;;;;3.10;2.87;;;10.00;99.90;;;;;;5099560;27;20918;-45
2021/05/07 10:30:43;;;;;;;4.87;3.33;;;10.20;99.90;;;;;;5101339;28;20424;-47
2021/05/07 10:33:16;;;;;;;2.93;2.30;;;10.40;99.90;;;;;;5093916;28;20189;-46
2021/05/07 10:35:41;;;;;;;3.40;3.00;;;10.40;99.90;;;;;;5089922;28;20657;-45
2021/05/07 10:38:18;;;;;;;4.73;3.27;;;10.50;99.90;;;;;;5104538;28;20953;-47
2021/05/07 10:40:45;;;;;;;6.23;3.67;;;10.60;99.90;;;;;;5106732;28;20261;-43
2021/05/07 10:43:12;;;;;;;5.10;4.07;;;10.30;99.90;;;;;;5098136;28;20414;-43
2021/05/07 10:45:44;;;;;;;3.93;3.47;;;10.30;99.90;;;;;;5108355;28;20575;-44
2021/05/07 10:48:21;;;;;;;3.80;3.50;;;10.40;99.90;;;;;;5095329;28;20918;-45
2021/05/07 10:50:49;;;;;;;4.57;3.73;;;10.30;99.90;;;;;;5079923;28;20513;-43
2021/05/07 10:53:25;;;;;;;4.00;3.60;;;10.40;99.90;;;;;;5089553;28;20415;-43
2021/05/07 10:55:50;;;;;;;3.20;2.90;;;10.40;99.90;;;;;;5106846;28;20456;-44
2021/05/07 10:58:16;;;;;;;3.63;2.70;;;10.40;99.90;;;;;;5088215;28;21049;-45
2021/05/07 11:00:42;;;;;;;2.80;2.60;;;10.40;99.90;;;;;;5087120;28;20179;-44
2021/05/07 11:03:20;;;;;;;3.30;3.00;;;10.40;99.90;;;;;;5084349;28;20360;-43
2021/05/07 11:05:48;;;;;;;3.63;3.33;;;10.40;99.50;;;;;;5080968;28;20221;-45
2021/05/07 11:08:14;;;;;;;3.63;2.57;;;10.30;99.90;;;;;;5087637;28;20437;-42
2021/05/07 11:10:40;;;;;;;2.97;2.60;;;10.40;99.90;;;;;;5068908;28;20418;-46
2021/05/07 11:13:07;;;;;;;3.40;3.20;;;10.20;99.90;;;;;;5087029;28;20418;-45
2021/05/07 11:15:33;;;;;;;3.53;3.23;;;10.10;99.90;;;;;;5087658;28;20852;-45
2021/05/07 11:18:05;;;;;;;5.97;3.70;;;10.10;99.90;;;;;;5087298;28;20557;-46
2021/05/07 11:20:49;;;;;;;3.90;3.60;;;10.10;99.90;;;;;;5087184;28;20421;-44
2021/05/07 11:23:15;;;;;;;3.17;2.90;;;10.20;99.90;;;;;;5077686;28;20501;-47
2021/05/07 11:25:41;;;;;;;3.67;3.37;;;10.50;99.90;;;;;;5087357;28;20575;-43
2021/05/07 11:28:11;;;;;;;4.10;3.70;;;10.60;99.90;;;;;;5086706;28;20595;-46
2021/05/07 11:30:46;;;;;;;4.93;3.87;;;10.80;99.90;;;;;;5100865;28;20421;-46
2021/05/07 11:33:12;;;;;;;3.67;3.40;;;11.00;99.90;;;;;;5101488;28;20921;-43
2021/05/07 11:35:38;;;;;;;3.73;3.40;;;11.10;99.90;;;;;;5078662;28;20419;-46
2021/05/07 11:38:03;;;;;;;3.73;3.20;;;11.10;99.10;;;;;;5087032;28;20185;-43
2021/05/07 11:40:40;;;;;;;5.03;4.03;;;11.10;99.30;;;;;;5085985;28;20199;-44
2021/05/07 11:43:12;;;;;;;4.87;4.37;;;11.10;99.30;;;;;;5085579;28;20179;-44
2021/05/07 11:45:39;;;;;;;3.60;3.30;;;11.10;99.40;;;;;;5102941;28;20785;-44
2021/05/07 11:48:13;;;;;;;3.60;3.30;;;11.10;99.00;;;;;;5098409;28;20747;-46
2021/05/07 11:50:39;;;;;;;5.03;3.30;;;11.20;99.40;;;;;;5083438;28;20410;-48
2021/05/07 11:53:16;;;;;;;3.80;3.60;;;11.30;98.90;;;;;;5088040;28;20463;-44
2021/05/07 11:55:41;;;;;;;2.80;2.60;;;11.40;98.90;;;;;;5106091;28;20674;-44
2021/05/07 11:58:08;;;;;;;4.60;3.20;;;11.50;98.70;;;;;;5093361;28;20422;-46
2021/05/07 12:00:36;;;;;;;3.03;2.83;;;11.70;99.50;;;;;;5105618;28;20183;-43
2021/05/07 12:03:14;;;;;;;4.20;3.30;;;11.80;98.40;;;;;;5106390;27;20870;-48
2021/05/07 12:05:42;;;;;;;4.67;3.03;;;11.80;96.00;;;;;;5073488;28;20458;-44
2021/05/07 12:08:09;;;;;;;4.10;3.70;;;11.90;97.50;;;;;;5087759;28;20480;-45
2021/05/07 12:10:40;;;;;;;4.53;4.20;;;11.90;95.80;;;;;;5105419;28;20405;-44
2021/05/07 12:13:06;;;;;;;3.97;3.67;;;11.90;95.80;;;;;;5098894;28;20414;-42
2021/05/07 12:15:47;;;;;;;4.30;3.90;;;11.90;96.00;;;;;;5106290;28;20578;-43
2021/05/07 12:18:21;;;;;;;3.60;3.30;;;11.90;96.00;;;;;;5105970;28;20622;-43
2021/05/07 12:20:55;;;;;;;3.60;3.40;;;12.00;97.80;;;;;;5068867;28;20453;-42
2021/05/07 12:23:21;;;;;;;3.50;3.17;;;12.10;97.10;;;;;;5073445;28;20407;-43
2021/05/07 12:25:47;;;;;;;4.00;3.70;;;12.30;96.00;;;;;;5084405;28;20421;-43
2021/05/07 12:28:15;;;;;;;4.30;3.20;;;12.40;94.30;;;;;;5085187;28;20552;-47
2021/05/07 12:30:45;;;;;;;3.17;2.80;;;12.40;94.00;;;;;;5100268;28;20410;-43
2021/05/07 12:33:28;;;;;;;3.60;2.70;;;12.40;93.60;;;;;;5105507;28;20774;-43
2021/05/07 12:35:56;;;;;;;4.30;3.37;;;12.30;94.10;;;;;;5073038;28;20796;-43
2021/05/07 12:38:35;;;;;;;4.07;3.07;;;12.30;93.00;;;;;;5083694;28;20847;-45
2021/05/07 12:41:11;;;;;;;2.83;2.50;;;12.30;92.40;;;;;;5092540;28;20759;-44
2021/05/07 12:43:57;;;;;;;4.40;2.07;;;12.50;93.60;;;;;;5084369;28;20418;-44